sensor_id;sensor_type;location;lat;lon;timestamp;pressure;altitude;pressure_sealevel;temperature
29423;BMP180;16399;51.686;8.684;2022-12-18T00:01:57;101234.00;;;-6.50
29423;BMP180;16399;51.686;8.684;2022-12-18T00:05:00;101250.00;;;-6.40
29423;BMP180;16399;51.686;8.684;2022-12-18T00:08:02;101252.00;;;-6.40
29423;BMP180;16399;51.686;8.684;2022-12-18T00:11:07;101243.00;;;-6.40
29423;BMP180;16399;51.686;8.684;2022-12-18T00:14:11;101237.00;;;-6.40
29423;BMP180;16399;51.686;8.684;2022-12-18T00:17:13;101243.00;;;-6.40
29423;BMP180;16399;51.686;8.684;2022-12-18T00:20:16;101227.00;;;-6.40
29423;BMP180;16399;51.686;8.684;2022-12-18T00:23:20;101231.00;;;-6.40
29423;BMP180;16399;51.686;8.684;2022-12-18T00:26:24;101243.00;;;-6.40
29423;BMP180;16399;51.686;8.684;2022-12-18T00:29:27;101242.00;;;-6.40
29423;BMP180;16399;51.686;8.684;2022-12-18T00:32:29;101248.00;;;-6.40
29423;BMP180;16399;51.686;8.684;2022-12-18T00:35:31;101240.00;;;-6.30
29423;BMP180;16399;51.686;8.684;2022-12-18T00:38:34;101241.00;;;-6.20
29423;BMP180;16399;51.686;8.684;2022-12-18T00:41:37;101242.00;;;-6.20
29423;BMP180;16399;51.686;8.684;2022-12-18T00:44:57;101246.00;;;-6.20
29423;BMP180;16399;51.686;8.684;2022-12-18T00:47:59;101260.00;;;-6.30
29423;BMP180;16399;51.686;8.684;2022-12-18T00:51:02;101263.00;;;-6.20
29423;BMP180;16399;51.686;8.684;2022-12-18T00:54:04;101257.00;;;-6.20
29423;BMP180;16399;51.686;8.684;2022-12-18T00:57:06;101249.00;;;-6.10
29423;BMP180;16399;51.686;8.684;2022-12-18T01:00:12;101254.00;;;-6.00
29423;BMP180;16399;51.686;8.684;2022-12-18T01:03:15;101256.00;;;-6.00
29423;BMP180;16399;51.686;8.684;2022-12-18T01:06:17;101253.00;;;-5.90
29423;BMP180;16399;51.686;8.684;2022-12-18T01:09:20;101234.00;;;-5.90
29423;BMP180;16399;51.686;8.684;2022-12-18T01:12:22;101248.00;;;-5.90
29423;BMP180;16399;51.686;8.684;2022-12-18T01:15:24;101243.00;;;-5.90
29423;BMP180;16399;51.686;8.684;2022-12-18T01:18:27;101240.00;;;-5.90
29423;BMP180;16399;51.686;8.684;2022-12-18T01:21:29;101242.00;;;-5.90
29423;BMP180;16399;51.686;8.684;2022-12-18T01:24:31;101235.00;;;-5.90
29423;BMP180;16399;51.686;8.684;2022-12-18T01:27:34;101232.00;;;-5.90
29423;BMP180;16399;51.686;8.684;2022-12-18T01:30:36;101223.00;;;-6.00
29423;BMP180;16399;51.686;8.684;2022-12-18T01:33:38;101220.00;;;-5.90
29423;BMP180;16399;51.686;8.684;2022-12-18T01:36:41;101222.00;;;-6.00
29423;BMP180;16399;51.686;8.684;2022-12-18T01:39:43;101235.00;;;-6.00
29423;BMP180;16399;51.686;8.684;2022-12-18T01:42:51;101238.00;;;-6.00
29423;BMP180;16399;51.686;8.684;2022-12-18T01:45:54;101237.00;;;-6.00
29423;BMP180;16399;51.686;8.684;2022-12-18T01:49:00;101224.00;;;-6.00
29423;BMP180;16399;51.686;8.684;2022-12-18T01:52:01;101215.00;;;-6.00
29423;BMP180;16399;51.686;8.684;2022-12-18T01:55:05;101217.00;;;-6.00
29423;BMP180;16399;51.686;8.684;2022-12-18T01:58:07;101217.00;;;-6.00
29423;BMP180;16399;51.686;8.684;2022-12-18T02:01:10;101206.00;;;-5.90
29423;BMP180;16399;51.686;8.684;2022-12-18T02:04:20;101220.00;;;-5.80
29423;BMP180;16399;51.686;8.684;2022-12-18T02:10:56;101200.00;;;-5.50
29423;BMP180;16399;51.686;8.684;2022-12-18T02:14:07;101200.00;;;-5.40
29423;BMP180;16399;51.686;8.684;2022-12-18T02:17:20;101199.00;;;-5.30
29423;BMP180;16399;51.686;8.684;2022-12-18T02:20:39;101211.00;;;-5.20
29423;BMP180;16399;51.686;8.684;2022-12-18T02:23:44;101197.00;;;-5.10
29423;BMP180;16399;51.686;8.684;2022-12-18T02:26:49;101159.00;;;-5.00
29423;BMP180;16399;51.686;8.684;2022-12-18T02:29:53;101206.00;;;-4.90
29423;BMP180;16399;51.686;8.684;2022-12-18T02:32:58;101199.00;;;-4.80
29423;BMP180;16399;51.686;8.684;2022-12-18T02:36:02;101204.00;;;-4.80
29423;BMP180;16399;51.686;8.684;2022-12-18T02:39:05;101196.00;;;-4.70
29423;BMP180;16399;51.686;8.684;2022-12-18T02:42:09;101189.00;;;-4.70
29423;BMP180;16399;51.686;8.684;2022-12-18T02:45:12;101179.00;;;-4.60
29423;BMP180;16399;51.686;8.684;2022-12-18T02:48:16;101175.00;;;-4.60
29423;BMP180;16399;51.686;8.684;2022-12-18T02:51:27;101182.00;;;-4.50
29423;BMP180;16399;51.686;8.684;2022-12-18T02:58:02;101179.00;;;-4.40
29423;BMP180;16399;51.686;8.684;2022-12-18T03:01:09;101178.00;;;-4.40
29423;BMP180;16399;51.686;8.684;2022-12-18T03:04:16;101182.00;;;-4.40
29423;BMP180;16399;51.686;8.684;2022-12-18T03:07:27;101175.00;;;-4.40
29423;BMP180;16399;51.686;8.684;2022-12-18T03:10:31;101187.00;;;-4.40
29423;BMP180;16399;51.686;8.684;2022-12-18T03:13:46;101189.00;;;-4.40
29423;BMP180;16399;51.686;8.684;2022-12-18T03:16:51;101187.00;;;-4.40
29423;BMP180;16399;51.686;8.684;2022-12-18T03:19:56;101187.00;;;-4.40
29423;BMP180;16399;51.686;8.684;2022-12-18T03:23:07;101189.00;;;-4.50
29423;BMP180;16399;51.686;8.684;2022-12-18T03:26:11;101177.00;;;-4.50
29423;BMP180;16399;51.686;8.684;2022-12-18T03:29:17;101179.00;;;-4.40
29423;BMP180;16399;51.686;8.684;2022-12-18T03:32:23;101176.00;;;-4.40
29423;BMP180;16399;51.686;8.684;2022-12-18T03:35:29;101184.00;;;-4.40
29423;BMP180;16399;51.686;8.684;2022-12-18T03:38:30;101189.00;;;-4.40
29423;BMP180;16399;51.686;8.684;2022-12-18T03:41:43;101200.00;;;-4.40
29423;BMP180;16399;51.686;8.684;2022-12-18T03:44:57;101197.00;;;-4.30
29423;BMP180;16399;51.686;8.684;2022-12-18T03:48:04;101190.00;;;-4.40
29423;BMP180;16399;51.686;8.684;2022-12-18T03:51:09;101186.00;;;-4.40
29423;BMP180;16399;51.686;8.684;2022-12-18T03:54:12;101185.00;;;-4.40
29423;BMP180;16399;51.686;8.684;2022-12-18T03:57:23;101190.00;;;-4.40
29423;BMP180;16399;51.686;8.684;2022-12-18T04:00:26;101190.00;;;-4.40
29423;BMP180;16399;51.686;8.684;2022-12-18T04:03:30;101176.00;;;-4.40
29423;BMP180;16399;51.686;8.684;2022-12-18T04:06:34;101186.00;;;-4.40
29423;BMP180;16399;51.686;8.684;2022-12-18T04:09:39;101184.00;;;-4.40
29423;BMP180;16399;51.686;8.684;2022-12-18T04:12:42;101182.00;;;-4.30
29423;BMP180;16399;51.686;8.684;2022-12-18T04:15:44;101177.00;;;-4.30
29423;BMP180;16399;51.686;8.684;2022-12-18T04:18:47;101180.00;;;-4.30
29423;BMP180;16399;51.686;8.684;2022-12-18T04:21:49;101179.00;;;-4.30
29423;BMP180;16399;51.686;8.684;2022-12-18T04:24:51;101183.00;;;-4.30
29423;BMP180;16399;51.686;8.684;2022-12-18T04:27:53;101179.00;;;-4.30
29423;BMP180;16399;51.686;8.684;2022-12-18T04:30:56;101176.00;;;-4.30
29423;BMP180;16399;51.686;8.684;2022-12-18T04:33:58;101195.00;;;-4.20
29423;BMP180;16399;51.686;8.684;2022-12-18T04:37:00;101184.00;;;-4.20
29423;BMP180;16399;51.686;8.684;2022-12-18T04:40:03;101173.00;;;-4.20
29423;BMP180;16399;51.686;8.684;2022-12-18T04:43:06;101192.00;;;-4.20
29423;BMP180;16399;51.686;8.684;2022-12-18T04:46:08;101185.00;;;-4.20
29423;BMP180;16399;51.686;8.684;2022-12-18T04:49:10;101198.00;;;-4.10
29423;BMP180;16399;51.686;8.684;2022-12-18T04:52:13;101205.00;;;-4.10
29423;BMP180;16399;51.686;8.684;2022-12-18T04:55:15;101215.00;;;-4.10
29423;BMP180;16399;51.686;8.684;2022-12-18T04:58:18;101222.00;;;-4.10
29423;BMP180;16399;51.686;8.684;2022-12-18T05:01:20;101221.00;;;-4.00
29423;BMP180;16399;51.686;8.684;2022-12-18T05:04:23;101219.00;;;-4.10
29423;BMP180;16399;51.686;8.684;2022-12-18T05:07:25;101207.00;;;-4.10
29423;BMP180;16399;51.686;8.684;2022-12-18T05:10:27;101208.00;;;-4.10
29423;BMP180;16399;51.686;8.684;2022-12-18T05:13:30;101202.00;;;-4.10
29423;BMP180;16399;51.686;8.684;2022-12-18T05:16:32;101198.00;;;-4.10
29423;BMP180;16399;51.686;8.684;2022-12-18T05:19:35;101200.00;;;-4.10
29423;BMP180;16399;51.686;8.684;2022-12-18T05:22:37;101197.00;;;-4.10
29423;BMP180;16399;51.686;8.684;2022-12-18T05:25:39;101184.00;;;-4.10
29423;BMP180;16399;51.686;8.684;2022-12-18T05:28:42;101182.00;;;-4.10
29423;BMP180;16399;51.686;8.684;2022-12-18T05:31:44;101183.00;;;-4.10
29423;BMP180;16399;51.686;8.684;2022-12-18T05:34:46;101183.00;;;-4.00
29423;BMP180;16399;51.686;8.684;2022-12-18T05:37:50;101186.00;;;-4.00
29423;BMP180;16399;51.686;8.684;2022-12-18T05:40:53;101183.00;;;-4.00
29423;BMP180;16399;51.686;8.684;2022-12-18T05:43:55;101190.00;;;-3.90
29423;BMP180;16399;51.686;8.684;2022-12-18T05:46:58;101177.00;;;-3.90
29423;BMP180;16399;51.686;8.684;2022-12-18T05:50:00;101182.00;;;-3.80
29423;BMP180;16399;51.686;8.684;2022-12-18T05:53:03;101177.00;;;-3.70
29423;BMP180;16399;51.686;8.684;2022-12-18T05:56:08;101179.00;;;-3.60
29423;BMP180;16399;51.686;8.684;2022-12-18T05:59:10;101179.00;;;-3.60
29423;BMP180;16399;51.686;8.684;2022-12-18T06:02:12;101184.00;;;-3.50
29423;BMP180;16399;51.686;8.684;2022-12-18T06:05:15;101180.00;;;-3.50
29423;BMP180;16399;51.686;8.684;2022-12-18T06:08:17;101171.00;;;-3.40
29423;BMP180;16399;51.686;8.684;2022-12-18T06:11:24;101164.00;;;-3.40
29423;BMP180;16399;51.686;8.684;2022-12-18T06:14:26;101174.00;;;-3.30
29423;BMP180;16399;51.686;8.684;2022-12-18T06:17:30;101180.00;;;-3.30
29423;BMP180;16399;51.686;8.684;2022-12-18T06:20:33;101184.00;;;-3.30
29423;BMP180;16399;51.686;8.684;2022-12-18T06:23:37;101189.00;;;-3.20
29423;BMP180;16399;51.686;8.684;2022-12-18T06:26:39;101188.00;;;-3.20
29423;BMP180;16399;51.686;8.684;2022-12-18T06:29:42;101185.00;;;-3.20
29423;BMP180;16399;51.686;8.684;2022-12-18T06:32:44;101187.00;;;-3.20
29423;BMP180;16399;51.686;8.684;2022-12-18T06:35:46;101179.00;;;-3.30
29423;BMP180;16399;51.686;8.684;2022-12-18T06:38:48;101191.00;;;-3.30
29423;BMP180;16399;51.686;8.684;2022-12-18T06:41:51;101192.00;;;-3.30
29423;BMP180;16399;51.686;8.684;2022-12-18T06:44:53;101196.00;;;-3.30
29423;BMP180;16399;51.686;8.684;2022-12-18T06:47:56;101193.00;;;-3.30
29423;BMP180;16399;51.686;8.684;2022-12-18T06:50:58;101197.00;;;-3.30
29423;BMP180;16399;51.686;8.684;2022-12-18T06:54:01;101217.00;;;-3.30
29423;BMP180;16399;51.686;8.684;2022-12-18T06:57:03;101208.00;;;-3.30
29423;BMP180;16399;51.686;8.684;2022-12-18T07:00:06;101217.00;;;-3.30
29423;BMP180;16399;51.686;8.684;2022-12-18T07:03:09;101209.00;;;-3.30
29423;BMP180;16399;51.686;8.684;2022-12-18T07:06:17;101206.00;;;-3.30
29423;BMP180;16399;51.686;8.684;2022-12-18T07:09:20;101209.00;;;-3.30
29423;BMP180;16399;51.686;8.684;2022-12-18T07:12:22;101215.00;;;-3.30
29423;BMP180;16399;51.686;8.684;2022-12-18T07:15:24;101214.00;;;-3.30
29423;BMP180;16399;51.686;8.684;2022-12-18T07:18:27;101205.00;;;-3.30
29423;BMP180;16399;51.686;8.684;2022-12-18T07:21:29;101211.00;;;-3.30
29423;BMP180;16399;51.686;8.684;2022-12-18T07:24:33;101194.00;;;-3.30
29423;BMP180;16399;51.686;8.684;2022-12-18T07:27:35;101206.00;;;-3.30
29423;BMP180;16399;51.686;8.684;2022-12-18T07:30:38;101188.00;;;-3.30
29423;BMP180;16399;51.686;8.684;2022-12-18T07:33:40;101195.00;;;-3.30
29423;BMP180;16399;51.686;8.684;2022-12-18T07:36:43;101194.00;;;-3.30
29423;BMP180;16399;51.686;8.684;2022-12-18T07:39:45;101180.00;;;-3.30
29423;BMP180;16399;51.686;8.684;2022-12-18T07:42:47;101180.00;;;-3.30
29423;BMP180;16399;51.686;8.684;2022-12-18T07:45:49;101191.00;;;-3.30
29423;BMP180;16399;51.686;8.684;2022-12-18T07:48:52;101190.00;;;-3.30
29423;BMP180;16399;51.686;8.684;2022-12-18T07:51:55;101204.00;;;-3.30
29423;BMP180;16399;51.686;8.684;2022-12-18T07:54:58;101196.00;;;-3.20
29423;BMP180;16399;51.686;8.684;2022-12-18T07:58:02;101208.00;;;-3.20
29423;BMP180;16399;51.686;8.684;2022-12-18T08:01:06;101213.00;;;-3.20
29423;BMP180;16399;51.686;8.684;2022-12-18T08:04:09;101209.00;;;-3.20
29423;BMP180;16399;51.686;8.684;2022-12-18T08:07:11;101210.00;;;-3.20
29423;BMP180;16399;51.686;8.684;2022-12-18T08:10:13;101200.00;;;-3.10
29423;BMP180;16399;51.686;8.684;2022-12-18T08:13:15;101198.00;;;-3.10
29423;BMP180;16399;51.686;8.684;2022-12-18T08:16:18;101209.00;;;-3.10
29423;BMP180;16399;51.686;8.684;2022-12-18T08:19:20;101192.00;;;-3.00
29423;BMP180;16399;51.686;8.684;2022-12-18T08:22:23;101191.00;;;-3.00
29423;BMP180;16399;51.686;8.684;2022-12-18T08:25:25;101174.00;;;-3.00
29423;BMP180;16399;51.686;8.684;2022-12-18T08:28:27;101187.00;;;-3.00
29423;BMP180;16399;51.686;8.684;2022-12-18T08:31:30;101177.00;;;-2.90
29423;BMP180;16399;51.686;8.684;2022-12-18T08:34:32;101170.00;;;-2.80
29423;BMP180;16399;51.686;8.684;2022-12-18T08:37:35;101169.00;;;-2.80
29423;BMP180;16399;51.686;8.684;2022-12-18T08:40:37;101155.00;;;-2.70
29423;BMP180;16399;51.686;8.684;2022-12-18T08:43:40;101158.00;;;-2.60
29423;BMP180;16399;51.686;8.684;2022-12-18T08:47:00;101154.00;;;-2.50
29423;BMP180;16399;51.686;8.684;2022-12-18T08:50:02;101151.00;;;-2.40
29423;BMP180;16399;51.686;8.684;2022-12-18T08:53:05;101141.00;;;-2.30
29423;BMP180;16399;51.686;8.684;2022-12-18T08:56:07;101139.00;;;-2.30
29423;BMP180;16399;51.686;8.684;2022-12-18T08:59:10;101141.00;;;-2.20
29423;BMP180;16399;51.686;8.684;2022-12-18T09:02:12;101146.00;;;-2.10
29423;BMP180;16399;51.686;8.684;2022-12-18T09:05:14;101139.00;;;-2.10
29423;BMP180;16399;51.686;8.684;2022-12-18T09:08:17;101136.00;;;-2.00
29423;BMP180;16399;51.686;8.684;2022-12-18T09:11:22;101138.00;;;-1.90
29423;BMP180;16399;51.686;8.684;2022-12-18T09:14:24;101131.00;;;-1.80
29423;BMP180;16399;51.686;8.684;2022-12-18T09:17:26;101130.00;;;-1.70
29423;BMP180;16399;51.686;8.684;2022-12-18T09:20:29;101130.00;;;-1.70
29423;BMP180;16399;51.686;8.684;2022-12-18T09:23:31;101143.00;;;-1.50
29423;BMP180;16399;51.686;8.684;2022-12-18T09:26:33;101149.00;;;-1.50
29423;BMP180;16399;51.686;8.684;2022-12-18T09:29:36;101140.00;;;-1.40
29423;BMP180;16399;51.686;8.684;2022-12-18T09:32:38;101150.00;;;-1.20
29423;BMP180;16399;51.686;8.684;2022-12-18T09:35:42;101138.00;;;-1.10
29423;BMP180;16399;51.686;8.684;2022-12-18T09:38:45;101135.00;;;-1.10
29423;BMP180;16399;51.686;8.684;2022-12-18T09:41:55;101136.00;;;-1.00
29423;BMP180;16399;51.686;8.684;2022-12-18T09:44:58;101145.00;;;-0.90
29423;BMP180;16399;51.686;8.684;2022-12-18T09:48:02;101129.00;;;-0.90
29423;BMP180;16399;51.686;8.684;2022-12-18T09:51:27;101129.00;;;-0.80
29423;BMP180;16399;51.686;8.684;2022-12-18T09:54:35;101143.00;;;-0.90
29423;BMP180;16399;51.686;8.684;2022-12-18T09:57:40;101139.00;;;-0.90
29423;BMP180;16399;51.686;8.684;2022-12-18T10:00:43;101144.00;;;-0.90
29423;BMP180;16399;51.686;8.684;2022-12-18T10:03:45;101148.00;;;-0.90
29423;BMP180;16399;51.686;8.684;2022-12-18T10:06:58;101137.00;;;-0.80
29423;BMP180;16399;51.686;8.684;2022-12-18T10:10:10;101157.00;;;-0.80
29423;BMP180;16399;51.686;8.684;2022-12-18T10:19:59;101135.00;;;-0.70
29423;BMP180;16399;51.686;8.684;2022-12-18T10:26:09;101123.00;;;-0.70
29423;BMP180;16399;51.686;8.684;2022-12-18T10:29:15;101114.00;;;-0.70
29423;BMP180;16399;51.686;8.684;2022-12-18T10:32:25;101104.00;;;-0.70
29423;BMP180;16399;51.686;8.684;2022-12-18T10:35:25;101085.00;;;-0.60
29423;BMP180;16399;51.686;8.684;2022-12-18T10:38:31;101076.00;;;-0.50
29423;BMP180;16399;51.686;8.684;2022-12-18T10:41:33;101058.00;;;-0.50
29423;BMP180;16399;51.686;8.684;2022-12-18T10:44:35;101067.00;;;-0.40
29423;BMP180;16399;51.686;8.684;2022-12-18T10:47:47;101061.00;;;-0.30
29423;BMP180;16399;51.686;8.684;2022-12-18T10:50:48;101059.00;;;-0.40
29423;BMP180;16399;51.686;8.684;2022-12-18T10:54:00;101033.00;;;-0.30
29423;BMP180;16399;51.686;8.684;2022-12-18T10:57:16;101039.00;;;-0.40
29423;BMP180;16399;51.686;8.684;2022-12-18T11:00:27;101031.00;;;-0.30
29423;BMP180;16399;51.686;8.684;2022-12-18T11:03:33;101034.00;;;-0.40
29423;BMP180;16399;51.686;8.684;2022-12-18T11:06:52;101031.00;;;-0.30
29423;BMP180;16399;51.686;8.684;2022-12-18T11:09:43;101038.00;;;-0.30
29423;BMP180;16399;51.686;8.684;2022-12-18T11:12:45;101041.00;;;-0.30
29423;BMP180;16399;51.686;8.684;2022-12-18T11:15:48;101023.00;;;-0.20
29423;BMP180;16399;51.686;8.684;2022-12-18T11:18:51;101020.00;;;-0.20
29423;BMP180;16399;51.686;8.684;2022-12-18T11:21:54;101000.00;;;-0.10
29423;BMP180;16399;51.686;8.684;2022-12-18T11:25:01;100983.00;;;0.00
29423;BMP180;16399;51.686;8.684;2022-12-18T11:28:25;100961.00;;;0.10
29423;BMP180;16399;51.686;8.684;2022-12-18T11:31:29;100964.00;;;0.20
29423;BMP180;16399;51.686;8.684;2022-12-18T11:34:33;100950.00;;;0.30
29423;BMP180;16399;51.686;8.684;2022-12-18T11:37:36;100945.00;;;0.30
29423;BMP180;16399;51.686;8.684;2022-12-18T11:40:42;100958.00;;;0.50
29423;BMP180;16399;51.686;8.684;2022-12-18T11:43:55;100945.00;;;0.50
29423;BMP180;16399;51.686;8.684;2022-12-18T11:47:15;100938.00;;;0.60
29423;BMP180;16399;51.686;8.684;2022-12-18T11:50:29;100940.00;;;0.70
29423;BMP180;16399;51.686;8.684;2022-12-18T11:53:30;100941.00;;;0.70
29423;BMP180;16399;51.686;8.684;2022-12-18T11:56:38;100934.00;;;0.80
29423;BMP180;16399;51.686;8.684;2022-12-18T12:00:03;100924.00;;;0.90
29423;BMP180;16399;51.686;8.684;2022-12-18T12:06:19;100923.00;;;0.90
29423;BMP180;16399;51.686;8.684;2022-12-18T12:09:59;100925.00;;;0.90
29423;BMP180;16399;51.686;8.684;2022-12-18T12:12:55;100912.00;;;1.00
29423;BMP180;16399;51.686;8.684;2022-12-18T12:16:18;100899.00;;;1.00
29423;BMP180;16399;51.686;8.684;2022-12-18T12:22:39;100873.00;;;0.90
29423;BMP180;16399;51.686;8.684;2022-12-18T12:25:52;100873.00;;;1.00
29423;BMP180;16399;51.686;8.684;2022-12-18T12:29:05;100865.00;;;0.90
29423;BMP180;16399;51.686;8.684;2022-12-18T12:32:11;100874.00;;;1.00
29423;BMP180;16399;51.686;8.684;2022-12-18T12:35:19;100872.00;;;0.90
29423;BMP180;16399;51.686;8.684;2022-12-18T12:41:32;100873.00;;;0.90
29423;BMP180;16399;51.686;8.684;2022-12-18T12:44:55;100873.00;;;0.80
29423;BMP180;16399;51.686;8.684;2022-12-18T12:47:59;100892.00;;;0.80
29423;BMP180;16399;51.686;8.684;2022-12-18T12:52:07;100889.00;;;0.80
29423;BMP180;16399;51.686;8.684;2022-12-18T12:54:19;100915.00;;;0.80
29423;BMP180;16399;51.686;8.684;2022-12-18T12:57:33;100901.00;;;0.80
29423;BMP180;16399;51.686;8.684;2022-12-18T13:00:39;100893.00;;;0.80
29423;BMP180;16399;51.686;8.684;2022-12-18T13:10:42;100871.00;;;0.80
29423;BMP180;16399;51.686;8.684;2022-12-18T13:13:52;100852.00;;;0.80
29423;BMP180;16399;51.686;8.684;2022-12-18T13:20:32;100848.00;;;0.80
29423;BMP180;16399;51.686;8.684;2022-12-18T13:23:35;100852.00;;;0.80
29423;BMP180;16399;51.686;8.684;2022-12-18T13:26:37;100846.00;;;0.70
29423;BMP180;16399;51.686;8.684;2022-12-18T13:29:43;100835.00;;;0.70
29423;BMP180;16399;51.686;8.684;2022-12-18T13:32:45;100832.00;;;0.70
29423;BMP180;16399;51.686;8.684;2022-12-18T13:36:32;100821.00;;;0.70
29423;BMP180;16399;51.686;8.684;2022-12-18T13:39:10;100816.00;;;0.70
29423;BMP180;16399;51.686;8.684;2022-12-18T13:45:39;100795.00;;;0.60
29423;BMP180;16399;51.686;8.684;2022-12-18T13:48:49;100808.00;;;0.60
29423;BMP180;16399;51.686;8.684;2022-12-18T13:51:50;100808.00;;;0.60
29423;BMP180;16399;51.686;8.684;2022-12-18T13:54:57;100797.00;;;0.50
29423;BMP180;16399;51.686;8.684;2022-12-18T13:58:05;100808.00;;;0.50
29423;BMP180;16399;51.686;8.684;2022-12-18T14:01:21;100810.00;;;0.50
29423;BMP180;16399;51.686;8.684;2022-12-18T14:04:32;100797.00;;;0.40
29423;BMP180;16399;51.686;8.684;2022-12-18T14:07:35;100806.00;;;0.50
29423;BMP180;16399;51.686;8.684;2022-12-18T14:10:46;100807.00;;;0.50
29423;BMP180;16399;51.686;8.684;2022-12-18T14:13:49;100817.00;;;0.40
29423;BMP180;16399;51.686;8.684;2022-12-18T14:16:52;100797.00;;;0.40
29423;BMP180;16399;51.686;8.684;2022-12-18T14:19:56;100803.00;;;0.30
29423;BMP180;16399;51.686;8.684;2022-12-18T14:22:58;100809.00;;;0.30
29423;BMP180;16399;51.686;8.684;2022-12-18T14:26:19;100818.00;;;0.30
29423;BMP180;16399;51.686;8.684;2022-12-18T14:29:26;100819.00;;;0.20
29423;BMP180;16399;51.686;8.684;2022-12-18T14:32:29;100803.00;;;0.10
29423;BMP180;16399;51.686;8.684;2022-12-18T14:35:32;100811.00;;;0.10
29423;BMP180;16399;51.686;8.684;2022-12-18T14:38:39;100816.00;;;0.10
29423;BMP180;16399;51.686;8.684;2022-12-18T14:41:41;100811.00;;;0.10
29423;BMP180;16399;51.686;8.684;2022-12-18T14:44:44;100812.00;;;0.00
29423;BMP180;16399;51.686;8.684;2022-12-18T14:47:46;100808.00;;;0.00
29423;BMP180;16399;51.686;8.684;2022-12-18T14:51:02;100808.00;;;0.00
29423;BMP180;16399;51.686;8.684;2022-12-18T14:54:06;100811.00;;;0.00
29423;BMP180;16399;51.686;8.684;2022-12-18T14:57:25;100820.00;;;-0.10
29423;BMP180;16399;51.686;8.684;2022-12-18T15:00:28;100807.00;;;-0.10
29423;BMP180;16399;51.686;8.684;2022-12-18T15:03:30;100805.00;;;-0.10
29423;BMP180;16399;51.686;8.684;2022-12-18T15:06:36;100803.00;;;-0.20
29423;BMP180;16399;51.686;8.684;2022-12-18T15:09:40;100806.00;;;-0.20
29423;BMP180;16399;51.686;8.684;2022-12-18T15:12:45;100799.00;;;-0.20
29423;BMP180;16399;51.686;8.684;2022-12-18T15:15:49;100789.00;;;-0.20
29423;BMP180;16399;51.686;8.684;2022-12-18T15:18:51;100791.00;;;-0.20
29423;BMP180;16399;51.686;8.684;2022-12-18T15:21:54;100786.00;;;-0.20
29423;BMP180;16399;51.686;8.684;2022-12-18T15:24:58;100786.00;;;-0.20
29423;BMP180;16399;51.686;8.684;2022-12-18T15:28:00;100798.00;;;-0.20
29423;BMP180;16399;51.686;8.684;2022-12-18T15:31:06;100786.00;;;-0.20
29423;BMP180;16399;51.686;8.684;2022-12-18T15:34:11;100783.00;;;-0.20
29423;BMP180;16399;51.686;8.684;2022-12-18T15:37:13;100775.00;;;-0.30
29423;BMP180;16399;51.686;8.684;2022-12-18T15:40:22;100762.00;;;-0.30
29423;BMP180;16399;51.686;8.684;2022-12-18T15:43:26;100773.00;;;-0.30
29423;BMP180;16399;51.686;8.684;2022-12-18T15:46:37;100776.00;;;-0.30
29423;BMP180;16399;51.686;8.684;2022-12-18T15:49:40;100750.00;;;-0.30
29423;BMP180;16399;51.686;8.684;2022-12-18T15:52:44;100745.00;;;-0.30
29423;BMP180;16399;51.686;8.684;2022-12-18T15:55:47;100724.00;;;-0.40
29423;BMP180;16399;51.686;8.684;2022-12-18T15:59:11;100735.00;;;-0.40
29423;BMP180;16399;51.686;8.684;2022-12-18T16:02:18;100750.00;;;-0.40
29423;BMP180;16399;51.686;8.684;2022-12-18T16:05:21;100739.00;;;-0.50
29423;BMP180;16399;51.686;8.684;2022-12-18T16:08:23;100728.00;;;-0.50
29423;BMP180;16399;51.686;8.684;2022-12-18T16:11:28;100703.00;;;-0.50
29423;BMP180;16399;51.686;8.684;2022-12-18T16:14:41;100733.00;;;-0.50
29423;BMP180;16399;51.686;8.684;2022-12-18T16:17:44;100724.00;;;-0.60
29423;BMP180;16399;51.686;8.684;2022-12-18T16:20:47;100723.00;;;-0.60
29423;BMP180;16399;51.686;8.684;2022-12-18T16:23:49;100733.00;;;-0.70
29423;BMP180;16399;51.686;8.684;2022-12-18T16:26:53;100714.00;;;-0.80
29423;BMP180;16399;51.686;8.684;2022-12-18T16:29:55;100719.00;;;-0.80
29423;BMP180;16399;51.686;8.684;2022-12-18T16:32:58;100727.00;;;-0.80
29423;BMP180;16399;51.686;8.684;2022-12-18T16:36:01;100731.00;;;-0.80
29423;BMP180;16399;51.686;8.684;2022-12-18T16:39:03;100718.00;;;-0.90
29423;BMP180;16399;51.686;8.684;2022-12-18T16:42:11;100717.00;;;-0.90
29423;BMP180;16399;51.686;8.684;2022-12-18T16:45:17;100724.00;;;-1.00
29423;BMP180;16399;51.686;8.684;2022-12-18T16:48:19;100705.00;;;-1.00
29423;BMP180;16399;51.686;8.684;2022-12-18T16:51:22;100703.00;;;-1.10
29423;BMP180;16399;51.686;8.684;2022-12-18T16:54:24;100706.00;;;-1.10
29423;BMP180;16399;51.686;8.684;2022-12-18T16:57:26;100711.00;;;-1.20
29423;BMP180;16399;51.686;8.684;2022-12-18T17:00:28;100689.00;;;-1.20
29423;BMP180;16399;51.686;8.684;2022-12-18T17:03:31;100705.00;;;-1.20
29423;BMP180;16399;51.686;8.684;2022-12-18T17:06:41;100696.00;;;-1.30
29423;BMP180;16399;51.686;8.684;2022-12-18T17:09:39;100677.00;;;-1.30
29423;BMP180;16399;51.686;8.684;2022-12-18T17:12:41;100682.00;;;-1.30
29423;BMP180;16399;51.686;8.684;2022-12-18T17:15:43;100680.00;;;-1.30
29423;BMP180;16399;51.686;8.684;2022-12-18T17:18:47;100679.00;;;-1.40
29423;BMP180;16399;51.686;8.684;2022-12-18T17:21:50;100683.00;;;-1.40
29423;BMP180;16399;51.686;8.684;2022-12-18T17:24:52;100679.00;;;-1.40
29423;BMP180;16399;51.686;8.684;2022-12-18T17:27:54;100693.00;;;-1.50
29423;BMP180;16399;51.686;8.684;2022-12-18T17:30:57;100682.00;;;-1.50
29423;BMP180;16399;51.686;8.684;2022-12-18T17:34:01;100665.00;;;-1.50
29423;BMP180;16399;51.686;8.684;2022-12-18T17:37:04;100655.00;;;-1.60
29423;BMP180;16399;51.686;8.684;2022-12-18T17:40:07;100655.00;;;-1.60
29423;BMP180;16399;51.686;8.684;2022-12-18T17:43:10;100658.00;;;-1.60
29423;BMP180;16399;51.686;8.684;2022-12-18T17:46:14;100656.00;;;-1.70
29423;BMP180;16399;51.686;8.684;2022-12-18T17:49:16;100650.00;;;-1.70
29423;BMP180;16399;51.686;8.684;2022-12-18T17:52:19;100665.00;;;-1.70
29423;BMP180;16399;51.686;8.684;2022-12-18T17:55:21;100656.00;;;-1.70
29423;BMP180;16399;51.686;8.684;2022-12-18T17:58:23;100652.00;;;-1.70
29423;BMP180;16399;51.686;8.684;2022-12-18T18:01:26;100647.00;;;-1.70
29423;BMP180;16399;51.686;8.684;2022-12-18T18:04:28;100634.00;;;-1.70
29423;BMP180;16399;51.686;8.684;2022-12-18T18:07:31;100647.00;;;-1.80
29423;BMP180;16399;51.686;8.684;2022-12-18T18:10:37;100647.00;;;-1.70
29423;BMP180;16399;51.686;8.684;2022-12-18T18:13:39;100640.00;;;-1.70